sensor_id;sensor_type;location;lat;lon;timestamp;pressure;altitude;pressure_sealevel;temperature;humidity
51617;BME280;37697;52.588;13.394;2023-04-26T00:04:36;100864.16;;;3.64;63.82
51617;BME280;37697;52.588;13.394;2023-04-26T00:10:02;100864.30;;;3.62;64.09
51617;BME280;37697;52.588;13.394;2023-04-26T00:15:28;100865.15;;;3.59;64.19
51617;BME280;37697;52.588;13.394;2023-04-26T00:20:54;100865.64;;;3.56;64.27
51617;BME280;37697;52.588;13.394;2023-04-26T00:26:20;100868.11;;;3.53;64.47
51617;BME280;37697;52.588;13.394;2023-04-26T00:31:39;100865.61;;;3.49;64.61
51617;BME280;37697;52.588;13.394;2023-04-26T00:37:05;100867.46;;;3.46;64.83
51617;BME280;37697;52.588;13.394;2023-04-26T00:42:31;100867.34;;;3.39;64.94
51617;BME280;37697;52.588;13.394;2023-04-26T00:47:57;100867.09;;;3.33;65.12
51617;BME280;37697;52.588;13.394;2023-04-26T00:53:23;100864.85;;;3.25;65.45
51617;BME280;37697;52.588;13.394;2023-04-26T00:58:49;100865.98;;;3.15;65.68
51617;BME280;37697;52.588;13.394;2023-04-26T01:04:15;100869.30;;;3.12;66.06
51617;BME280;37697;52.588;13.394;2023-04-26T01:09:41;100874.05;;;3.06;65.96
51617;BME280;37697;52.588;13.394;2023-04-26T01:15:10;100878.50;;;3.01;66.30
51617;BME280;37697;52.588;13.394;2023-04-26T01:20:36;100875.50;;;2.97;66.62
51617;BME280;37697;52.588;13.394;2023-04-26T01:26:01;100881.94;;;2.91;66.61
51617;BME280;37697;52.588;13.394;2023-04-26T01:31:26;100881.09;;;2.85;67.05
51617;BME280;37697;52.588;13.394;2023-04-26T01:36:51;100881.80;;;2.78;67.24
51617;BME280;37697;52.588;13.394;2023-04-26T01:42:18;100889.48;;;2.75;67.44
51617;BME280;37697;52.588;13.394;2023-04-26T01:47:43;100896.72;;;2.72;67.82
51617;BME280;37697;52.588;13.394;2023-04-26T01:53:09;100896.39;;;2.69;67.91
51617;BME280;37697;52.588;13.394;2023-04-26T01:58:35;100894.85;;;2.64;68.18
51617;BME280;37697;52.588;13.394;2023-04-26T02:04:01;100893.43;;;2.63;68.35
51617;BME280;37697;52.588;13.394;2023-04-26T02:09:27;100893.70;;;2.60;68.64
51617;BME280;37697;52.588;13.394;2023-04-26T02:14:53;100899.91;;;2.58;68.69
51617;BME280;37697;52.588;13.394;2023-04-26T02:20:19;100899.60;;;2.53;68.90
51617;BME280;37697;52.588;13.394;2023-04-26T02:25:47;100895.73;;;2.49;69.24
51617;BME280;37697;52.588;13.394;2023-04-26T02:31:12;100896.69;;;2.48;69.34
51617;BME280;37697;52.588;13.394;2023-04-26T02:36:38;100895.31;;;2.43;69.63
51617;BME280;37697;52.588;13.394;2023-04-26T02:42:04;100893.78;;;2.40;69.77
51617;BME280;37697;52.588;13.394;2023-04-26T02:47:32;100892.41;;;2.39;69.90
51617;BME280;37697;52.588;13.394;2023-04-26T02:52:58;100896.48;;;2.36;70.17
51617;BME280;37697;52.588;13.394;2023-04-26T02:58:24;100893.59;;;2.32;70.44
51617;BME280;37697;52.588;13.394;2023-04-26T03:03:50;100894.69;;;2.30;70.59
51617;BME280;37697;52.588;13.394;2023-04-26T03:09:16;100896.50;;;2.27;70.71
51617;BME280;37697;52.588;13.394;2023-04-26T03:14:36;100895.25;;;2.24;70.80
51617;BME280;37697;52.588;13.394;2023-04-26T03:20:02;100899.27;;;2.22;70.92
51617;BME280;37697;52.588;13.394;2023-04-26T03:25:27;100900.94;;;2.21;71.15
51617;BME280;37697;52.588;13.394;2023-04-26T03:30:53;100896.26;;;2.17;71.25
51617;BME280;37697;52.588;13.394;2023-04-26T03:36:19;100903.48;;;2.14;71.48
51617;BME280;37697;52.588;13.394;2023-04-26T03:41:45;100907.17;;;2.14;71.55
51617;BME280;37697;52.588;13.394;2023-04-26T03:47:11;100912.98;;;2.14;71.66
51617;BME280;37697;52.588;13.394;2023-04-26T03:52:37;100914.47;;;2.12;71.64
51617;BME280;37697;52.588;13.394;2023-04-26T03:58:03;100918.49;;;2.09;71.75
51617;BME280;37697;52.588;13.394;2023-04-26T04:03:29;100921.34;;;2.07;72.03
51617;BME280;37697;52.588;13.394;2023-04-26T04:08:55;100923.86;;;2.06;72.21
51617;BME280;37697;52.588;13.394;2023-04-26T04:14:21;100924.23;;;2.08;72.42
51617;BME280;37697;52.588;13.394;2023-04-26T04:19:46;100929.02;;;2.12;72.38
51617;BME280;37697;52.588;13.394;2023-04-26T04:25:11;100929.05;;;2.13;72.34
51617;BME280;37697;52.588;13.394;2023-04-26T04:30:29;100928.58;;;2.17;72.63
51617;BME280;37697;52.588;13.394;2023-04-26T04:35:55;100939.05;;;2.21;72.68
51617;BME280;37697;52.588;13.394;2023-04-26T04:41:21;100942.85;;;2.27;72.75
51617;BME280;37697;52.588;13.394;2023-04-26T04:46:47;100942.36;;;2.33;72.79
51617;BME280;37697;52.588;13.394;2023-04-26T04:52:13;100943.59;;;2.43;72.75
51617;BME280;37697;52.588;13.394;2023-04-26T04:57:38;100944.56;;;2.84;72.12
51617;BME280;37697;52.588;13.394;2023-04-26T05:03:04;100954.34;;;3.25;71.52
51617;BME280;37697;52.588;13.394;2023-04-26T05:08:30;100962.08;;;3.62;70.87
51617;BME280;37697;52.588;13.394;2023-04-26T05:13:56;100966.29;;;4.05;70.14
51617;BME280;37697;52.588;13.394;2023-04-26T05:19:22;100971.68;;;4.38;69.27
51617;BME280;37697;52.588;13.394;2023-04-26T05:24:48;100974.36;;;4.55;68.68
51617;BME280;37697;52.588;13.394;2023-04-26T05:30:14;100980.06;;;4.68;68.47
51617;BME280;37697;52.588;13.394;2023-04-26T05:35:40;100986.13;;;4.81;68.51
51617;BME280;37697;52.588;13.394;2023-04-26T05:41:05;100987.41;;;5.02;67.76
51617;BME280;37697;52.588;13.394;2023-04-26T05:46:30;100988.49;;;5.28;67.34
51617;BME280;37697;52.588;13.394;2023-04-26T05:51:59;100988.94;;;5.61;67.09
51617;BME280;37697;52.588;13.394;2023-04-26T05:57:24;100992.92;;;5.90;66.32
51617;BME280;37697;52.588;13.394;2023-04-26T06:02:50;100991.52;;;6.00;66.04
51617;BME280;37697;52.588;13.394;2023-04-26T06:08:16;100995.57;;;6.13;65.73
51617;BME280;37697;52.588;13.394;2023-04-26T06:13:32;100999.30;;;6.32;65.03
51617;BME280;37697;52.588;13.394;2023-04-26T06:18:59;101006.05;;;6.40;64.97
51617;BME280;37697;52.588;13.394;2023-04-26T06:24:24;101006.30;;;6.44;64.58
51617;BME280;37697;52.588;13.394;2023-04-26T06:29:49;101007.39;;;6.63;64.27
51617;BME280;37697;52.588;13.394;2023-04-26T06:35:15;101011.95;;;6.78;63.60
51617;BME280;37697;52.588;13.394;2023-04-26T06:40:33;101011.54;;;6.83;63.32
51617;BME280;37697;52.588;13.394;2023-04-26T06:45:59;101021.29;;;6.86;63.60
51617;BME280;37697;52.588;13.394;2023-04-26T06:51:27;101027.92;;;6.98;63.44
51617;BME280;37697;52.588;13.394;2023-04-26T06:56:53;101016.65;;;7.27;63.57
51617;BME280;37697;52.588;13.394;2023-04-26T07:02:19;101016.67;;;7.66;62.53
51617;BME280;37697;52.588;13.394;2023-04-26T07:07:45;101010.01;;;7.75;62.20
51617;BME280;37697;52.588;13.394;2023-04-26T07:13:11;101013.45;;;7.85;61.31
51617;BME280;37697;52.588;13.394;2023-04-26T07:18:37;101018.85;;;7.95;61.84
51617;BME280;37697;52.588;13.394;2023-04-26T07:24:03;101021.67;;;8.33;61.86
51617;BME280;37697;52.588;13.394;2023-04-26T07:29:29;101031.69;;;8.16;60.26
51617;BME280;37697;52.588;13.394;2023-04-26T07:34:55;101026.29;;;8.35;60.19
51617;BME280;37697;52.588;13.394;2023-04-26T07:40:21;101025.36;;;8.47;60.10
51617;BME280;37697;52.588;13.394;2023-04-26T07:45:47;101026.75;;;8.85;59.95
51617;BME280;37697;52.588;13.394;2023-04-26T07:51:13;101033.85;;;8.74;59.28
51617;BME280;37697;52.588;13.394;2023-04-26T07:56:39;101041.27;;;8.74;59.18
51617;BME280;37697;52.588;13.394;2023-04-26T08:02:04;101040.91;;;8.68;59.01
51617;BME280;37697;52.588;13.394;2023-04-26T08:07:48;101039.92;;;8.53;57.94
51617;BME280;37697;52.588;13.394;2023-04-26T08:13:14;101041.09;;;8.35;58.27
51617;BME280;37697;52.588;13.394;2023-04-26T08:18:40;101041.16;;;8.18;58.81
51617;BME280;37697;52.588;13.394;2023-04-26T08:24:07;101045.73;;;8.68;58.29
51617;BME280;37697;52.588;13.394;2023-04-26T08:29:33;101052.95;;;8.65;57.51
51617;BME280;37697;52.588;13.394;2023-04-26T08:34:48;101052.10;;;8.25;57.26
51617;BME280;37697;52.588;13.394;2023-04-26T08:40:14;101050.39;;;8.30;57.92
51617;BME280;37697;52.588;13.394;2023-04-26T08:45:46;101052.44;;;9.04;58.26
51617;BME280;37697;52.588;13.394;2023-04-26T08:51:14;101053.27;;;9.04;56.63
51617;BME280;37697;52.588;13.394;2023-04-26T08:56:41;101060.19;;;8.56;56.19
51617;BME280;37697;52.588;13.394;2023-04-26T09:02:08;101060.23;;;8.68;56.67
51617;BME280;37697;52.588;13.394;2023-04-26T09:07:38;101062.36;;;9.07;56.47
51617;BME280;37697;52.588;13.394;2023-04-26T09:13:04;101068.07;;;8.92;55.40
51617;BME280;37697;52.588;13.394;2023-04-26T09:18:30;101069.20;;;8.67;55.70
51617;BME280;37697;52.588;13.394;2023-04-26T09:23:59;101065.46;;;8.76;56.26
51617;BME280;37697;52.588;13.394;2023-04-26T09:29:21;101066.85;;;9.01;55.67
51617;BME280;37697;52.588;13.394;2023-04-26T09:34:47;101070.05;;;8.71;55.26
51617;BME280;37697;52.588;13.394;2023-04-26T09:40:20;101070.38;;;8.29;55.61
51617;BME280;37697;52.588;13.394;2023-04-26T09:45:46;101070.36;;;8.16;57.09
51617;BME280;37697;52.588;13.394;2023-04-26T09:51:12;101071.05;;;8.53;58.19
51617;BME280;37697;52.588;13.394;2023-04-26T09:56:38;101061.00;;;9.49;57.11
51617;BME280;37697;52.588;13.394;2023-04-26T10:02:04;101063.85;;;9.91;55.60
51617;BME280;37697;52.588;13.394;2023-04-26T10:07:33;101064.11;;;9.64;53.94
51617;BME280;37697;52.588;13.394;2023-04-26T10:13:00;101061.17;;;9.83;53.84
51617;BME280;37697;52.588;13.394;2023-04-26T10:18:19;101057.67;;;10.09;53.63
51617;BME280;37697;52.588;13.394;2023-04-26T10:23:45;101058.70;;;9.93;52.15
51617;BME280;37697;52.588;13.394;2023-04-26T10:29:11;101065.27;;;9.70;51.98
51617;BME280;37697;52.588;13.394;2023-04-26T10:34:38;101069.69;;;9.43;51.65
51617;BME280;37697;52.588;13.394;2023-04-26T10:40:23;101077.05;;;9.29;51.72
51617;BME280;37697;52.588;13.394;2023-04-26T10:45:49;101075.63;;;9.35;51.61
51617;BME280;37697;52.588;13.394;2023-04-26T10:51:12;101063.94;;;9.83;52.16
51617;BME280;37697;52.588;13.394;2023-04-26T10:56:53;101057.98;;;10.19;52.18
51617;BME280;37697;52.588;13.394;2023-04-26T11:02:11;101057.98;;;10.20;51.35
51617;BME280;37697;52.588;13.394;2023-04-26T11:07:38;101066.66;;;10.12;51.63
51617;BME280;37697;52.588;13.394;2023-04-26T11:13:03;101062.96;;;10.18;51.23
51617;BME280;37697;52.588;13.394;2023-04-26T11:18:29;101063.91;;;10.56;50.54
51617;BME280;37697;52.588;13.394;2023-04-26T11:23:56;101066.98;;;10.82;49.70
51617;BME280;37697;52.588;13.394;2023-04-26T11:29:22;101068.93;;;10.60;48.82
51617;BME280;37697;52.588;13.394;2023-04-26T11:34:41;101063.70;;;10.34;49.08
51617;BME280;37697;52.588;13.394;2023-04-26T11:39:58;101063.77;;;10.40;49.35
51617;BME280;37697;52.588;13.394;2023-04-26T11:45:24;101066.38;;;10.81;49.25
51617;BME280;37697;52.588;13.394;2023-04-26T11:50:51;101063.00;;;11.51;48.94
51617;BME280;37697;52.588;13.394;2023-04-26T11:56:17;101067.40;;;11.48;46.93
51617;BME280;37697;52.588;13.394;2023-04-26T12:01:50;101074.42;;;11.04;46.14
51617;BME280;37697;52.588;13.394;2023-04-26T12:07:12;101067.45;;;11.32;46.86
51617;BME280;37697;52.588;13.394;2023-04-26T12:12:47;101070.09;;;11.65;46.09
51617;BME280;37697;52.588;13.394;2023-04-26T12:18:13;101074.63;;;11.12;46.29
51617;BME280;37697;52.588;13.394;2023-04-26T12:23:38;101075.23;;;11.17;46.89
51617;BME280;37697;52.588;13.394;2023-04-26T12:29:04;101079.10;;;11.48;46.72
51617;BME280;37697;52.588;13.394;2023-04-26T12:34:30;101080.86;;;11.41;46.04
51617;BME280;37697;52.588;13.394;2023-04-26T12:39:56;101079.61;;;11.22;45.45
51617;BME280;37697;52.588;13.394;2023-04-26T12:45:22;101073.36;;;11.28;45.58
51617;BME280;37697;52.588;13.394;2023-04-26T12:50:48;101076.27;;;11.17;45.80
51617;BME280;37697;52.588;13.394;2023-04-26T12:56:14;101077.23;;;10.96;46.12
51617;BME280;37697;52.588;13.394;2023-04-26T13:01:49;101072.95;;;10.72;46.58
51617;BME280;37697;52.588;13.394;2023-04-26T13:07:15;101076.59;;;10.63;46.44
51617;BME280;37697;52.588;13.394;2023-04-26T13:12:40;101077.83;;;10.53;46.26
51617;BME280;37697;52.588;13.394;2023-04-26T13:18:06;101079.05;;;10.74;46.81
51617;BME280;37697;52.588;13.394;2023-04-26T13:23:26;101078.43;;;11.41;46.68
51617;BME280;37697;52.588;13.394;2023-04-26T13:28:40;101077.09;;;11.73;45.76
51617;BME280;37697;52.588;13.394;2023-04-26T13:34:07;101083.82;;;11.31;45.07
51617;BME280;37697;52.588;13.394;2023-04-26T13:39:33;101087.90;;;10.61;45.74
51617;BME280;37697;52.588;13.394;2023-04-26T13:44:59;101090.34;;;10.26;46.20
51617;BME280;37697;52.588;13.394;2023-04-26T13:50:23;101094.13;;;10.18;46.63
51617;BME280;37697;52.588;13.394;2023-04-26T13:55:49;101093.23;;;10.23;46.64
51617;BME280;37697;52.588;13.394;2023-04-26T14:01:13;101095.32;;;10.51;47.01
51617;BME280;37697;52.588;13.394;2023-04-26T14:06:39;101092.50;;;10.77;46.86
51617;BME280;37697;52.588;13.394;2023-04-26T14:12:05;101102.41;;;10.70;46.02
51617;BME280;37697;52.588;13.394;2023-04-26T14:17:32;101101.67;;;10.67;45.43
51617;BME280;37697;52.588;13.394;2023-04-26T14:22:58;101104.35;;;10.85;45.67
51617;BME280;37697;52.588;13.394;2023-04-26T14:28:24;101100.72;;;10.93;45.64
51617;BME280;37697;52.588;13.394;2023-04-26T14:33:50;101100.05;;;10.90;45.70
51617;BME280;37697;52.588;13.394;2023-04-26T14:39:16;101095.96;;;10.74;45.74
51617;BME280;37697;52.588;13.394;2023-04-26T14:44:35;101093.53;;;10.53;45.61
51617;BME280;37697;52.588;13.394;2023-04-26T14:49:50;101093.30;;;10.45;46.06
51617;BME280;37697;52.588;13.394;2023-04-26T14:55:18;101096.42;;;10.59;46.02
51617;BME280;37697;52.588;13.394;2023-04-26T15:00:45;101098.02;;;10.59;46.07
51617;BME280;37697;52.588;13.394;2023-04-26T15:06:11;101097.11;;;10.52;46.20
51617;BME280;37697;52.588;13.394;2023-04-26T15:11:35;101097.16;;;10.33;45.80
51617;BME280;37697;52.588;13.394;2023-04-26T15:17:01;101091.39;;;10.06;46.17
51617;BME280;37697;52.588;13.394;2023-04-26T15:22:12;101088.98;;;9.87;46.08
51617;BME280;37697;52.588;13.394;2023-04-26T15:27:30;101093.82;;;9.69;46.25
51617;BME280;37697;52.588;13.394;2023-04-26T15:32:58;101099.60;;;9.57;45.96
51617;BME280;37697;52.588;13.394;2023-04-26T15:38:14;101102.05;;;9.43;46.36
51617;BME280;37697;52.588;13.394;2023-04-26T15:43:33;101105.70;;;9.43;46.92
51617;BME280;37697;52.588;13.394;2023-04-26T15:48:59;101107.05;;;9.45;47.24
51617;BME280;37697;52.588;13.394;2023-04-26T15:54:25;101109.80;;;9.45;47.35
51617;BME280;37697;52.588;13.394;2023-04-26T15:59:51;101116.77;;;9.47;47.23
51617;BME280;37697;52.588;13.394;2023-04-26T16:05:17;101122.11;;;9.40;47.16
51617;BME280;37697;52.588;13.394;2023-04-26T16:10:43;101127.59;;;9.33;47.28
51617;BME280;37697;52.588;13.394;2023-04-26T16:16:09;101125.57;;;9.15;47.37
51617;BME280;37697;52.588;13.394;2023-04-26T16:21:35;101133.60;;;9.04;47.58
51617;BME280;37697;52.588;13.394;2023-04-26T16:27:01;101132.20;;;8.96;48.39
51617;BME280;37697;52.588;13.394;2023-04-26T16:32:27;101132.19;;;8.92;48.47
51617;BME280;37697;52.588;13.394;2023-04-26T16:37:53;101128.54;;;8.94;48.83
51617;BME280;37697;52.588;13.394;2023-04-26T16:43:19;101125.41;;;8.93;48.81
51617;BME280;37697;52.588;13.394;2023-04-26T16:48:45;101118.59;;;8.98;49.30
51617;BME280;37697;52.588;13.394;2023-04-26T16:54:11;101118.66;;;9.04;49.37
51617;BME280;37697;52.588;13.394;2023-04-26T16:59:37;101129.79;;;9.06;49.68
51617;BME280;37697;52.588;13.394;2023-04-26T17:05:03;101127.02;;;9.02;50.04
51617;BME280;37697;52.588;13.394;2023-04-26T17:10:28;101124.33;;;9.11;50.20
51617;BME280;37697;52.588;13.394;2023-04-26T17:15:54;101127.14;;;9.19;49.95
51617;BME280;37697;52.588;13.394;2023-04-26T17:21:20;101130.30;;;9.23;49.35
51617;BME280;37697;52.588;13.394;2023-04-26T17:26:46;101134.15;;;9.13;49.22
51617;BME280;37697;52.588;13.394;2023-04-26T17:32:12;101142.77;;;8.94;49.00
51617;BME280;37697;52.588;13.394;2023-04-26T17:37:38;101141.30;;;8.82;49.48
51617;BME280;37697;52.588;13.394;2023-04-26T17:42:56;101139.79;;;8.74;49.76
51617;BME280;37697;52.588;13.394;2023-04-26T17:48:15;101146.48;;;8.61;49.80
51617;BME280;37697;52.588;13.394;2023-04-26T17:53:41;101147.84;;;8.44;49.86
51617;BME280;37697;52.588;13.394;2023-04-26T17:59:07;101154.02;;;8.27;49.82
51617;BME280;37697;52.588;13.394;2023-04-26T18:04:33;101156.79;;;8.05;50.16
51617;BME280;37697;52.588;13.394;2023-04-26T18:09:58;101159.93;;;7.91;50.42
51617;BME280;37697;52.588;13.394;2023-04-26T18:15:24;101170.19;;;7.84;50.73
51617;BME280;37697;52.588;13.394;2023-04-26T18:20:50;101172.42;;;7.69;51.06
51617;BME280;37697;52.588;13.394;2023-04-26T18:26:16;101176.80;;;7.53;51.43
51617;BME280;37697;52.588;13.394;2023-04-26T18:31:43;101178.66;;;7.44;51.83
51617;BME280;37697;52.588;13.394;2023-04-26T18:37:01;101186.45;;;7.32;52.06
51617;BME280;37697;52.588;13.394;2023-04-26T18:42:27;101194.34;;;7.23;52.46
51617;BME280;37697;52.588;13.394;2023-04-26T18:47:53;101198.91;;;7.13;52.97
51617;BME280;37697;52.588;13.394;2023-04-26T18:53:19;101203.55;;;7.06;53.45
51617;BME280;37697;52.588;13.394;2023-04-26T18:58:45;101211.51;;;6.97;53.70
51617;BME280;37697;52.588;13.394;2023-04-26T19:04:11;101217.86;;;6.87;54.09
51617;BME280;37697;52.588;13.394;2023-04-26T19:09:37;101222.80;;;6.78;54.31
51617;BME280;37697;52.588;13.394;2023-04-26T19:15:06;101224.07;;;6.69;54.67
51617;BME280;37697;52.588;13.394;2023-04-26T19:20:32;101233.10;;;6.60;55.02
51617;BME280;37697;52.588;13.394;2023-04-26T19:25:50;101233.04;;;6.51;55.04
51617;BME280;37697;52.588;13.394;2023-04-26T19:31:16;101232.92;;;6.41;55.39
51617;BME280;37697;52.588;13.394;2023-04-26T19:36:42;101235.27;;;6.33;55.71
51617;BME280;37697;52.588;13.394;2023-04-26T19:41:58;101233.85;;;6.25;55.74
51617;BME280;37697;52.588;13.394;2023-04-26T19:47:24;101238.90;;;6.18;56.00
51617;BME280;37697;52.588;13.394;2023-04-26T19:52:50;101240.02;;;6.15;56.27
51617;BME280;37697;52.588;13.394;2023-04-26T19:58:15;101246.79;;;6.13;56.62
51617;BME280;37697;52.588;13.394;2023-04-26T20:03:41;101248.84;;;6.12;56.83
51617;BME280;37697;52.588;13.394;2023-04-26T20:09:07;101249.81;;;6.10;57.09
51617;BME280;37697;52.588;13.394;2023-04-26T20:14:33;101251.42;;;6.06;57.13
51617;BME280;37697;52.588;13.394;2023-04-26T20:19:57;101258.76;;;6.00;57.44
51617;BME280;37697;52.588;13.394;2023-04-26T20:25:23;101256.88;;;5.91;57.70
51617;BME280;37697;52.588;13.394;2023-04-26T20:30:49;101256.95;;;5.85;57.94
51617;BME280;37697;52.588;13.394;2023-04-26T20:36:15;101259.23;;;5.77;58.07
51617;BME280;37697;52.588;13.394;2023-04-26T20:41:41;101266.38;;;5.65;58.26
51617;BME280;37697;52.588;13.394;2023-04-26T20:47:07;101267.56;;;5.54;58.39
51617;BME280;37697;52.588;13.394;2023-04-26T20:52:32;101267.60;;;5.47;58.64
51617;BME280;37697;52.588;13.394;2023-04-26T20:57:57;101266.54;;;5.41;59.05
51617;BME280;37697;52.588;13.394;2023-04-26T21:03:15;101267.75;;;5.37;59.46
51617;BME280;37697;52.588;13.394;2023-04-26T21:08:41;101262.83;;;5.37;59.70
51617;BME280;37697;52.588;13.394;2023-04-26T21:14:07;101266.81;;;5.36;60.01
51617;BME280;37697;52.588;13.394;2023-04-26T21:19:33;101262.50;;;5.36;60.31
51617;BME280;37697;52.588;13.394;2023-04-26T21:24:58;101268.48;;;5.33;60.57
51617;BME280;37697;52.588;13.394;2023-04-26T21:30:17;101266.23;;;5.31;60.36
51617;BME280;37697;52.588;13.394;2023-04-26T21:35:43;101267.16;;;5.32;60.71
51617;BME280;37697;52.588;13.394;2023-04-26T21:41:09;101269.45;;;5.30;60.60
51617;BME280;37697;52.588;13.394;2023-04-26T21:46:27;101271.42;;;5.28;60.84
51617;BME280;37697;52.588;13.394;2023-04-26T21:51:53;101270.88;;;5.24;60.70
51617;BME280;37697;52.588;13.394;2023-04-26T21:57:19;101273.41;;;5.24;61.02
51617;BME280;37697;52.588;13.394;2023-04-26T22:02:48;101275.81;;;5.25;61.16
51617;BME280;37697;52.588;13.394;2023-04-26T22:08:07;101277.96;;;5.25;61.24
51617;BME280;37697;52.588;13.394;2023-04-26T22:13:33;101281.54;;;5.24;61.62
51617;BME280;37697;52.588;13.394;2023-04-26T22:18:59;101284.20;;;5.27;61.74
51617;BME280;37697;52.588;13.394;2023-04-26T22:24:25;101297.34;;;5.30;61.85
51617;BME280;37697;52.588;13.394;2023-04-26T22:29:51;101302.20;;;5.34;62.30
51617;BME280;37697;52.588;13.394;2023-04-26T22:35:28;101308.61;;;5.40;62.23
51617;BME280;37697;52.588;13.394;2023-04-26T22:40:54;101312.78;;;5.42;62.41
51617;BME280;37697;52.588;13.394;2023-04-26T22:46:20;101319.69;;;5.44;62.53
51617;BME280;37697;52.588;13.394;2023-04-26T22:51:46;101319.91;;;5.44;62.59
51617;BME280;37697;52.588;13.394;2023-04-26T22:57:24;101322.82;;;5.45;62.28
51617;BME280;37697;52.588;13.394;2023-04-26T23:02:50;101322.81;;;5.45;62.61
51617;BME280;37697;52.588;13.394;2023-04-26T23:08:14;101321.91;;;5.43;62.73
51617;BME280;37697;52.588;13.394;2023-04-26T23:13:40;101323.73;;;5.44;62.67
51617;BME280;37697;52.588;13.394;2023-04-26T23:19:06;101330.63;;;5.45;62.80
51617;BME280;37697;52.588;13.394;2023-04-26T23:24:32;101335.52;;;5.47;62.93
51617;BME280;37697;52.588;13.394;2023-04-26T23:29:57;101334.36;;;5.47;62.84
51617;BME280;37697;52.588;13.394;2023-04-26T23:35:23;101340.20;;;5.45;62.82
51617;BME280;37697;52.588;13.394;2023-04-26T23:40:49;101336.42;;;5.46;62.74
51617;BME280;37697;52.588;13.394;2023-04-26T23:46:15;101333.30;;;5.49;63.22
51617;BME280;37697;52.588;13.394;2023-04-26T23:51:41;101330.45;;;5.48;63.27
51617;BME280;37697;52.588;13.394;2023-04-26T23:57:06;101326.33;;;5.47;63.09
